Rachal, Texas
Current Conditions -  °F | °C
As of 10:15 AM on Thursday 18 Dec 2014 (Local Time) from KBKS Reporting Station
Overcast Overcast  
Wind Chill: 72°   Ceiling: 2600
Heat Index: 72°   Visibility: 7mi
Dew Point: 68°   Wind: 5mph
Humidity: 87%   Direction: 130°SE
Pressure: 30.06"   Gusts: NA
Location:  26.9826°N, 98.212°W
Report Text: KBKS 181615Z AUTO 13004KT 7SM SCT011 BKN026 OVC031 22/20 A3006 RMK AO1 T02200198
Loading
Personal Weather Stations






























Interactive Weather Map New forecast layout! Learn more

10-Day Weather Forecast

Advertisements
Track Severe Weather on mobile